Time;durP1;ratioP1;P1;durP2;ratioP2;P2;SDS_P1;SDS_P2;PMS_P1;PMS_P2;Temp;Humidity;BMP_temperature;BMP_pressure;BME280_temperature;BME280_humidity;BME280_pressure;Samples;Min_cycle;Max_cycle;Signal;HPM_P1;HPM_P2
2021/04/19 00:01:17;;;;;;;4.68;1.88;;;18.20;40.80;;;;;;4987426;28;20168;-79
2021/04/19 00:03:54;;;;;;;3.63;1.70;;;18.20;41.00;;;;;;4987719;28;20219;-79
2021/04/19 00:06:22;;;;;;;5.32;2.20;;;18.10;40.80;;;;;;5003633;28;20148;-79
2021/04/19 00:08:49;;;;;;;4.93;1.70;;;18.10;40.90;;;;;;4987643;28;20172;-79
2021/04/19 00:11:18;;;;;;;2.65;1.55;;;18.20;40.80;;;;;;4987527;28;20183;-80
2021/04/19 00:13:44;;;;;;;4.90;1.98;;;18.10;40.90;;;;;;5010916;23;20176;-78
2021/04/19 00:16:10;;;;;;;7.47;1.85;;;18.10;40.90;;;;;;5028372;23;20219;-79
2021/04/19 00:18:37;;;;;;;5.72;2.03;;;18.10;41.60;;;;;;4984309;28;20169;-79
2021/04/19 00:21:07;;;;;;;4.30;2.00;;;18.10;41.60;;;;;;4968080;28;20187;-80
2021/04/19 00:23:33;;;;;;;3.00;1.60;;;18.10;41.60;;;;;;4999734;23;20223;-80
2021/04/19 00:26:01;;;;;;;3.30;1.50;;;18.10;40.90;;;;;;4971369;28;20160;-80
2021/04/19 00:28:29;;;;;;;3.33;1.70;;;18.10;40.90;;;;;;4987198;28;20176;-79
2021/04/19 00:30:57;;;;;;;2.70;1.48;;;18.10;40.90;;;;;;5089880;23;20215;-79
2021/04/19 00:33:24;;;;;;;4.63;1.80;;;18.10;41.00;;;;;;5042003;23;20216;-79
2021/04/19 00:35:57;;;;;;;4.68;1.95;;;18.10;41.00;;;;;;4971185;28;20200;-80
2021/04/19 00:38:28;;;;;;;5.72;1.90;;;18.10;41.00;;;;;;4987587;28;20176;-80
2021/04/19 00:41:04;;;;;;;4.72;1.80;;;18.10;41.00;;;;;;4987374;28;20215;-79
2021/04/19 00:43:34;;;;;;;4.75;1.90;;;18.10;41.00;;;;;;5003450;28;20207;-80
2021/04/19 00:46:18;;;;;;;3.22;1.48;;;18.10;41.00;;;;;;4985803;28;20183;-78
2021/04/19 00:48:59;;;;;;;6.28;1.90;;;18.10;41.00;;;;;;5001126;28;20208;-79
2021/04/19 00:51:52;;;;;;;5.78;2.10;;;18.10;41.00;;;;;;5000373;28;20164;-78
2021/04/19 00:54:22;;;;;;;4.70;1.70;;;18.10;41.00;;;;;;5000275;28;20248;-78
2021/04/19 00:56:49;;;;;;;3.80;1.70;;;18.10;40.90;;;;;;4984513;28;20195;-77
2021/04/19 00:59:28;;;;;;;3.90;1.92;;;18.10;40.90;;;;;;4985079;28;20171;-78
2021/04/19 01:01:55;;;;;;;3.92;1.73;;;18.10;41.00;;;;;;4985299;28;20163;-79
2021/04/19 01:04:22;;;;;;;6.07;1.67;;;18.10;41.00;;;;;;4985092;28;20207;-78
2021/04/19 01:06:50;;;;;;;3.60;1.75;;;18.00;41.00;;;;;;4985157;28;20220;-78
2021/04/19 01:09:18;;;;;;;6.75;1.73;;;18.00;41.10;;;;;;4984988;28;20227;-78
2021/04/19 01:11:45;;;;;;;6.35;1.92;;;18.00;41.10;;;;;;4984770;28;20183;-78
2021/04/19 01:14:19;;;;;;;5.65;1.85;;;18.00;41.10;;;;;;5018275;28;20151;-78
2021/04/19 01:16:53;;;;;;;4.85;1.85;;;18.00;41.20;;;;;;5018243;28;20180;-78
2021/04/19 01:19:27;;;;;;;4.22;1.75;;;18.00;41.00;;;;;;5018246;28;20148;-78
2021/04/19 01:21:55;;;;;;;6.43;1.60;;;18.00;41.00;;;;;;5000853;28;20174;-78
2021/04/19 01:24:25;;;;;;;4.35;1.80;;;18.00;41.00;;;;;;5000786;28;20187;-78
2021/04/19 01:26:52;;;;;;;7.75;2.25;;;18.00;41.10;;;;;;5017465;28;20188;-78
2021/04/19 01:29:22;;;;;;;3.03;1.65;;;18.00;41.00;;;;;;5017958;28;20200;-78
2021/04/19 01:31:49;;;;;;;4.97;2.05;;;18.00;41.00;;;;;;5017745;28;20164;-79
2021/04/19 01:34:15;;;;;;;4.03;1.65;;;18.00;41.10;;;;;;5001527;28;20231;-78
2021/04/19 01:36:44;;;;;;;5.22;1.50;;;18.00;41.10;;;;;;5018006;28;20231;-78
2021/04/19 01:39:16;;;;;;;2.55;1.45;;;18.00;41.10;;;;;;5018108;28;20184;-78
2021/04/19 01:41:46;;;;;;;4.40;1.70;;;18.00;41.20;;;;;;5018503;28;20157;-77
2021/04/19 01:44:14;;;;;;;5.05;2.13;;;18.00;41.10;;;;;;5000841;28;20172;-78
2021/04/19 01:46:41;;;;;;;5.20;2.15;;;18.00;41.20;;;;;;5018198;28;20170;-78
2021/04/19 01:49:21;;;;;;;4.45;1.83;;;18.00;41.20;;;;;;4985082;28;20156;-78
2021/04/19 01:51:50;;;;;;;3.58;1.70;;;18.00;41.30;;;;;;4985047;28;20187;-79
2021/04/19 01:54:21;;;;;;;5.20;1.63;;;18.00;41.10;;;;;;4985037;28;20167;-78
2021/04/19 01:56:52;;;;;;;5.38;1.75;;;17.90;41.10;;;;;;4984665;28;20233;-78
2021/04/19 01:59:34;;;;;;;4.03;1.90;;;18.00;41.20;;;;;;4985209;28;20219;-78
2021/04/19 02:02:22;;;;;;;4.10;1.58;;;18.00;41.20;;;;;;5001962;28;20161;-78
2021/04/19 02:05:27;;;;;;;3.60;1.63;;;18.00;41.20;;;;;;4989009;28;20207;-78
2021/04/19 02:08:08;;;;;;;4.15;2.00;;;18.00;41.30;;;;;;5004921;28;20172;-78
2021/04/19 02:11:11;;;;;;;4.80;2.13;;;18.00;41.20;;;;;;5004877;28;20156;-78
2021/04/19 02:13:51;;;;;;;3.67;1.77;;;18.00;41.10;;;;;;4908617;29;20175;-77
2021/04/19 02:16:39;;;;;;;3.28;1.70;;;18.00;41.10;;;;;;4908401;29;20227;-77
2021/04/19 02:19:14;;;;;;;5.18;1.70;;;17.90;41.20;;;;;;4908663;29;20243;-78
2021/04/19 02:22:05;;;;;;;3.70;1.80;;;18.00;41.10;;;;;;4908673;29;20190;-79
2021/04/19 02:24:47;;;;;;;5.65;2.03;;;18.00;41.20;;;;;;4893585;29;20164;-77
2021/04/19 02:27:47;;;;;;;3.85;1.70;;;18.00;41.20;;;;;;4909057;29;20163;-79
2021/04/19 02:30:31;;;;;;;3.72;1.60;;;18.00;41.10;;;;;;4886383;29;20199;-78
2021/04/19 02:32:57;;;;;;;3.33;1.80;;;18.00;41.00;;;;;;4871392;29;20212;-78
2021/04/19 02:35:49;;;;;;;4.03;1.60;;;18.00;41.20;;;;;;4871301;29;20189;-78
2021/04/19 02:38:41;;;;;;;4.57;1.65;;;18.00;41.20;;;;;;4858592;29;20184;-79
2021/04/19 02:41:43;;;;;;;5.68;1.90;;;18.00;41.20;;;;;;4885646;29;20282;-78
2021/04/19 02:44:37;;;;;;;4.05;1.77;;;18.00;41.10;;;;;;4873612;29;20200;-78
2021/04/19 02:47:23;;;;;;;3.95;1.98;;;18.00;41.20;;;;;;4873750;29;20193;-78
2021/04/19 02:50:21;;;;;;;4.78;1.58;;;18.00;41.10;;;;;;4932876;29;20173;-77
2021/04/19 02:53:12;;;;;;;4.50;1.58;;;18.00;41.10;;;;;;4946687;29;20190;-77
2021/04/19 02:55:46;;;;;;;5.28;2.10;;;17.90;41.20;;;;;;4933354;29;20158;-77
2021/04/19 02:58:23;;;;;;;5.72;1.73;;;18.00;41.00;;;;;;4945880;29;20163;-76
2021/04/19 03:00:59;;;;;;;3.83;1.70;;;18.00;41.10;;;;;;4947429;29;20158;-77
2021/04/19 03:03:35;;;;;;;4.43;1.88;;;17.90;41.00;;;;;;4946286;29;20200;-77
2021/04/19 03:06:05;;;;;;;3.95;1.63;;;17.90;41.10;;;;;;4965456;28;20219;-77
2021/04/19 03:08:45;;;;;;;4.43;1.90;;;17.90;41.10;;;;;;4984446;28;20169;-80
2021/04/19 03:11:31;;;;;;;2.97;1.67;;;18.00;41.10;;;;;;4999857;28;20137;-79
2021/04/19 03:14:03;;;;;;;4.10;1.60;;;18.00;41.10;;;;;;5000108;28;20200;-78
2021/04/19 03:16:30;;;;;;;3.53;1.70;;;17.90;41.10;;;;;;4984098;28;20165;-77
2021/04/19 03:19:01;;;;;;;2.83;1.65;;;17.90;41.20;;;;;;4983748;28;20160;-78
2021/04/19 03:21:31;;;;;;;6.38;1.90;;;17.90;41.10;;;;;;4983956;28;20202;-78
2021/04/19 03:24:10;;;;;;;3.10;1.60;;;17.90;41.20;;;;;;4984248;28;20219;-78
2021/04/19 03:26:37;;;;;;;2.28;1.50;;;17.90;41.20;;;;;;4983983;28;20159;-77
2021/04/19 03:29:13;;;;;;;3.95;1.83;;;17.90;41.30;;;;;;4983657;28;20168;-77
2021/04/19 03:32:07;;;;;;;3.10;1.67;;;17.90;41.30;;;;;;5000226;28;20165;-77
2021/04/19 03:34:35;;;;;;;5.50;1.95;;;17.90;41.20;;;;;;4890820;29;20211;-77
2021/04/19 03:37:24;;;;;;;3.55;1.77;;;17.90;41.20;;;;;;4891425;29;20183;-77
2021/04/19 03:39:57;;;;;;;3.08;1.67;;;17.90;41.20;;;;;;4891805;29;20198;-79
2021/04/19 03:42:31;;;;;;;5.20;1.75;;;17.90;41.10;;;;;;4922599;29;20160;-77
2021/04/19 03:45:07;;;;;;;3.58;1.90;;;17.90;41.20;;;;;;4922408;29;20194;-78
2021/04/19 03:47:39;;;;;;;2.78;1.70;;;17.90;41.10;;;;;;4922555;29;20176;-77
2021/04/19 03:50:07;;;;;;;4.28;1.58;;;17.90;41.20;;;;;;4906892;29;20714;-77
2021/04/19 03:52:42;;;;;;;3.28;1.70;;;17.90;41.20;;;;;;4907420;29;20187;-77
2021/04/19 03:55:18;;;;;;;2.85;1.48;;;17.90;41.10;;;;;;4922332;29;20163;-77
2021/04/19 03:57:46;;;;;;;3.45;1.65;;;17.90;41.00;;;;;;4907043;29;20200;-77
2021/04/19 04:00:17;;;;;;;2.60;1.63;;;17.90;41.20;;;;;;4907241;29;20155;-79
2021/04/19 04:02:55;;;;;;;3.33;2.00;;;17.90;41.20;;;;;;4922247;29;20175;-77
2021/04/19 04:08:01;;;;;;;2.88;1.63;;;18.00;41.00;;;;;;5063463;23;20223;-77
2021/04/19 04:10:32;;;;;;;3.33;1.75;;;18.00;41.00;;;;;;5003589;28;20151;-77
2021/04/19 04:13:00;;;;;;;3.72;1.50;;;17.90;40.90;;;;;;4987540;28;20191;-77
2021/04/19 04:15:30;;;;;;;2.67;1.40;;;17.90;40.80;;;;;;5003271;28;20160;-78
2021/04/19 04:18:02;;;;;;;2.70;1.58;;;18.00;40.60;;;;;;5003064;28;20171;-77
2021/04/19 04:20:35;;;;;;;2.45;1.52;;;18.10;40.30;;;;;;4987247;28;20172;-77
2021/04/19 04:23:03;;;;;;;2.97;1.60;;;18.20;40.30;;;;;;4986911;28;20252;-77
2021/04/19 04:25:32;;;;;;;3.65;1.58;;;18.10;40.30;;;;;;5002452;28;20164;-77
2021/04/19 04:28:03;;;;;;;3.13;1.77;;;18.10;40.40;;;;;;4986338;28;20168;-77
2021/04/19 04:30:34;;;;;;;4.28;1.90;;;18.10;40.60;;;;;;4985973;28;20184;-78
2021/04/19 04:33:10;;;;;;;3.33;1.92;;;18.10;40.30;;;;;;5018993;28;20263;-78
2021/04/19 04:35:38;;;;;;;3.78;1.52;;;18.10;40.40;;;;;;5019391;28;20152;-78
2021/04/19 04:38:11;;;;;;;4.03;1.70;;;18.10;40.50;;;;;;5002326;28;20236;-77
2021/04/19 04:40:37;;;;;;;2.85;1.70;;;18.00;40.50;;;;;;5003033;28;20168;-78
2021/04/19 04:43:25;;;;;;;2.10;1.42;;;18.00;40.30;;;;;;5002488;28;20191;-77
2021/04/19 04:46:06;;;;;;;2.83;1.70;;;18.10;40.00;;;;;;5019095;28;20148;-79
2021/04/19 04:48:47;;;;;;;3.08;1.38;;;18.20;40.20;;;;;;5001988;28;20179;-78
2021/04/19 04:51:17;;;;;;;2.72;1.38;;;18.10;40.30;;;;;;5018374;28;20164;-78
2021/04/19 04:54:17;;;;;;;2.83;1.60;;;18.10;40.30;;;;;;4986051;28;20223;-78
2021/04/19 04:57:07;;;;;;;2.47;1.33;;;18.10;40.10;;;;;;5002521;28;20188;-78
2021/04/19 04:59:35;;;;;;;2.78;1.52;;;18.10;40.10;;;;;;5002739;28;20148;-77
2021/04/19 05:02:00;;;;;;;3.28;1.67;;;18.10;40.10;;;;;;5001331;28;20183;-78
2021/04/19 05:04:30;;;;;;;3.70;1.52;;;18.10;40.00;;;;;;5000312;28;20192;-78
2021/04/19 05:39:03;;;;;;;3.50;1.40;;;18.20;39.30;;;;;;5950319;23;20183;-78
2021/04/19 05:41:34;;;;;;;2.95;1.50;;;18.30;39.40;;;;;;4989998;28;20199;-78
2021/04/19 05:48:01;;;;;;;3.47;1.67;;;18.20;39.20;;;;;;5022784;28;20175;-78
2021/04/19 05:50:49;;;;;;;2.80;1.67;;;18.20;39.20;;;;;;5005787;28;20163;-78
2021/04/19 05:53:16;;;;;;;2.13;1.20;;;18.20;39.30;;;;;;5151666;23;20230;-80
2021/04/19 05:55:54;;;;;;;1.52;1.20;;;18.30;39.00;;;;;;5124705;23;20287;-80
2021/04/19 05:58:50;;;;;;;2.47;1.58;;;18.30;38.80;;;;;;4986109;28;20188;-79
2021/04/19 06:07:17;;;;;;;4.15;1.80;;;18.30;38.90;;;;;;5670028;23;20240;-78
2021/04/19 06:09:54;;;;;;;3.20;1.48;;;18.40;39.20;;;;;;4969028;28;20255;-78
2021/04/19 06:12:31;;;;;;;2.90;1.40;;;18.40;39.20;;;;;;4969156;28;20201;-78
2021/04/19 06:15:01;;;;;;;1.65;1.30;;;18.40;39.00;;;;;;4953072;28;20160;-78
2021/04/19 06:17:55;;;;;;;3.72;1.60;;;18.30;38.90;;;;;;4969254;28;20167;-78
2021/04/19 06:20:21;;;;;;;2.45;1.60;;;18.40;38.80;;;;;;4983251;28;20252;-77
2021/04/19 06:22:54;;;;;;;1.90;1.38;;;18.40;38.40;;;;;;4965440;28;20257;-77
2021/04/19 06:25:22;;;;;;;2.13;1.40;;;18.40;38.20;;;;;;4950139;28;20153;-78
2021/04/19 06:28:02;;;;;;;2.90;1.50;;;18.50;38.10;;;;;;4947499;28;20161;-79
2021/04/19 06:30:31;;;;;;;3.42;1.60;;;18.50;38.00;;;;;;4994876;28;20167;-79
2021/04/19 06:32:59;;;;;;;3.83;1.50;;;18.40;38.40;;;;;;4950419;28;20157;-76
2021/04/19 06:35:37;;;;;;;1.75;1.30;;;18.40;37.90;;;;;;4966290;28;20160;-80
2021/04/19 06:38:13;;;;;;;2.58;1.42;;;18.50;38.00;;;;;;4965945;28;20167;-79
2021/04/19 06:40:45;;;;;;;1.70;1.17;;;18.40;37.90;;;;;;4980994;28;20172;-77
2021/04/19 06:43:11;;;;;;;4.32;1.63;;;18.40;37.90;;;;;;4962705;28;20177;-81
2021/04/19 06:45:40;;;;;;;2.83;1.38;;;18.50;37.80;;;;;;4941030;28;20612;-79
2021/04/19 06:48:07;;;;;;;1.80;1.48;;;18.40;37.80;;;;;;4933744;28;20211;-78
2021/04/19 06:50:34;;;;;;;3.35;1.60;;;18.50;37.70;;;;;;4938680;28;20165;-80
2021/04/19 06:53:04;;;;;;;1.85;1.45;;;18.40;37.60;;;;;;4940524;28;20683;-82
2021/04/19 06:55:33;;;;;;;2.70;1.60;;;18.50;37.80;;;;;;4956671;28;20509;-79
2021/04/19 06:58:04;;;;;;;2.88;1.33;;;18.50;37.60;;;;;;4941994;28;20175;-78
2021/04/19 07:00:37;;;;;;;4.40;1.80;;;18.50;37.60;;;;;;4959298;28;20172;-82
2021/04/19 07:03:04;;;;;;;1.80;1.63;;;18.50;37.60;;;;;;4975330;28;20172;-82
2021/04/19 07:05:34;;;;;;;3.53;1.67;;;18.60;37.40;;;;;;4973932;28;20157;-83
2021/04/19 07:08:43;;;;;;;3.15;1.83;;;18.60;37.40;;;;;;4973610;29;20228;-85
2021/04/19 07:13:53;;;;;;;2.63;1.70;;;18.50;37.50;;;;;;5414013;23;20239;-82
2021/04/19 07:16:42;;;;;;;1.90;1.58;;;18.50;37.60;;;;;;4998733;28;20155;-82
2021/04/19 07:19:11;;;;;;;2.40;1.23;;;18.50;37.60;;;;;;4981500;28;20180;-84
2021/04/19 07:21:47;;;;;;;1.60;1.30;;;18.50;37.50;;;;;;4995798;28;20203;-82
2021/04/19 07:24:31;;;;;;;1.88;1.50;;;18.50;37.30;;;;;;4980413;28;20286;-82
2021/04/19 07:27:09;;;;;;;3.42;1.58;;;18.50;37.40;;;;;;5014409;28;20203;-84
2021/04/19 07:29:55;;;;;;;3.47;1.75;;;18.50;37.40;;;;;;4983038;28;20195;-83
2021/04/19 07:32:40;;;;;;;2.17;1.30;;;18.30;37.60;;;;;;4982905;28;20233;-84
2021/04/19 07:35:39;;;;;;;3.42;1.42;;;18.30;37.80;;;;;;4999494;28;20219;-83
2021/04/19 07:38:13;;;;;;;2.95;1.58;;;18.30;37.70;;;;;;4996062;28;20187;-84
2021/04/19 07:40:51;;;;;;;1.85;1.40;;;18.30;37.70;;;;;;4978758;28;20245;-81
2021/04/19 07:43:29;;;;;;;3.72;1.70;;;18.40;37.40;;;;;;4964289;28;20218;-78
2021/04/19 07:46:11;;;;;;;1.63;1.40;;;18.50;37.40;;;;;;4982227;28;20176;-81
2021/04/19 07:48:53;;;;;;;1.95;1.25;;;18.60;37.10;;;;;;4966377;28;20159;-82
2021/04/19 07:54:38;;;;;;;1.85;1.60;;;18.60;37.00;;;;;;5000381;28;20167;-80
2021/04/19 07:57:13;;;;;;;2.88;1.65;;;18.50;37.00;;;;;;4925719;29;20170;-77
2021/04/19 08:00:14;;;;;;;3.15;1.30;;;18.50;37.30;;;;;;4956147;29;20197;-76
2021/04/19 08:03:00;;;;;;;2.92;1.70;;;18.50;37.30;;;;;;4938200;29;20226;-78
2021/04/19 08:06:07;;;;;;;2.10;1.45;;;18.50;36.90;;;;;;4935497;29;20269;-82
2021/04/19 08:09:08;;;;;;;3.85;1.70;;;18.60;36.80;;;;;;4934921;29;20182;-79
2021/04/19 08:11:57;;;;;;;;;;;;;;;;;;;;;
2021/04/19 08:14:30;;;;;;;3.08;1.67;;;18.50;37.10;;;;;;4919414;29;20254;-81
2021/04/19 08:17:14;;;;;;;3.60;1.85;;;18.60;37.10;;;;;;4903558;29;20183;-79
2021/04/19 08:19:44;;;;;;;5.05;1.70;;;18.60;36.90;;;;;;4934203;29;20283;-80
2021/04/19 08:22:23;;;;;;;4.78;1.95;;;18.60;36.90;;;;;;4915214;29;20195;-85
2021/04/19 08:25:11;;;;;;;2.08;1.38;;;18.60;37.00;;;;;;4914885;29;20171;-84
2021/04/19 08:28:08;;;;;;;5.97;1.85;;;18.60;36.60;;;;;;4921147;29;20271;-81
2021/04/19 08:30:41;;;;;;;3.22;1.77;;;18.70;36.60;;;;;;4948019;29;20186;-81
2021/04/19 08:33:15;;;;;;;4.40;1.98;;;18.70;36.50;;;;;;4932013;29;20279;-79
2021/04/19 08:35:56;;;;;;;4.72;1.80;;;18.70;36.40;;;;;;4937525;29;20170;-79
2021/04/19 08:38:26;;;;;;;3.53;1.70;;;18.60;36.50;;;;;;4933984;29;20190;-80
2021/04/19 08:40:54;;;;;;;3.92;2.10;;;18.70;36.60;;;;;;4933356;29;20181;-83
2021/04/19 08:43:37;;;;;;;;;;;;;;;;;;;;;
2021/04/19 08:46:15;;;;;;;3.45;1.88;;;18.70;36.40;;;;;;4977738;28;20204;-82
2021/04/19 08:48:44;;;;;;;4.50;2.05;;;18.70;36.30;;;;;;4970632;28;20199;-85
2021/04/19 08:51:28;;;;;;;3.30;1.98;;;18.70;36.40;;;;;;4970615;28;20192;-85
2021/04/19 08:53:58;;;;;;;4.15;1.80;;;18.70;36.20;;;;;;4970724;28;20181;-83
2021/04/19 08:56:33;;;;;;;3.22;1.75;;;18.70;36.20;;;;;;4987095;28;20211;-83
2021/04/19 08:59:01;;;;;;;4.68;1.75;;;18.70;36.40;;;;;;4971066;28;20631;-80
2021/04/19 09:04:30;;;;;;;6.53;1.75;;;18.70;36.10;;;;;;4987297;28;20184;-84
2021/04/19 09:07:03;;;;;;;2.47;1.73;;;18.70;36.20;;;;;;4973168;28;20175;-83
2021/04/19 09:09:36;;;;;;;5.20;2.25;;;18.70;36.30;;;;;;4986477;28;20152;-84
2021/04/19 09:12:11;;;;;;;3.10;1.90;;;18.70;36.40;;;;;;4986057;28;20183;-84
2021/04/19 09:14:42;;;;;;;2.78;1.67;;;18.70;36.10;;;;;;5001057;28;20230;-83
2021/04/19 09:17:09;;;;;;;3.53;1.67;;;18.70;36.20;;;;;;4973897;28;20175;-84
2021/04/19 09:19:42;;;;;;;6.63;2.00;;;18.60;36.30;;;;;;4989243;28;20169;-84
2021/04/19 09:22:11;;;;;;;4.97;1.80;;;18.70;36.20;;;;;;4973963;28;20168;-84
2021/04/19 09:25:09;;;;;;;2.33;1.80;;;18.70;36.10;;;;;;4975589;28;20195;-84
2021/04/19 09:27:56;;;;;;;3.08;2.00;;;18.70;36.30;;;;;;4988047;28;20211;-81
2021/04/19 09:30:48;;;;;;;2.97;1.67;;;18.60;36.30;;;;;;4989618;28;20164;-84
2021/04/19 09:33:22;;;;;;;3.33;2.28;;;18.60;36.40;;;;;;4989190;28;20192;-83
2021/04/19 09:35:52;;;;;;;3.38;1.90;;;18.70;36.00;;;;;;4991287;28;20156;-82
2021/04/19 09:38:33;;;;;;;5.85;1.70;;;18.60;36.20;;;;;;4974762;28;20260;-81
2021/04/19 09:41:25;;;;;;;2.90;1.75;;;18.70;36.20;;;;;;4991796;28;20175;-83
2021/04/19 09:43:58;;;;;;;4.93;1.98;;;18.60;36.20;;;;;;4954403;28;20213;-82
2021/04/19 09:46:32;;;;;;;2.75;1.92;;;18.60;36.00;;;;;;4955873;28;20163;-85
2021/04/19 09:49:06;;;;;;;3.08;2.00;;;18.60;36.00;;;;;;4971930;28;20169;-82
2021/04/19 09:51:47;;;;;;;2.80;1.73;;;18.60;36.00;;;;;;4979930;28;20150;-79
2021/04/19 09:54:15;;;;;;;4.88;2.00;;;18.60;35.90;;;;;;4994575;28;20218;-83
2021/04/19 09:56:43;;;;;;;4.38;2.00;;;18.70;36.20;;;;;;4973458;28;20178;-84
2021/04/19 09:59:20;;;;;;;2.70;2.00;;;18.60;35.70;;;;;;4957556;28;20214;-84
2021/04/19 10:01:51;;;;;;;4.88;1.75;;;18.60;35.80;;;;;;4956330;28;20175;-81
2021/04/19 10:04:17;;;;;;;4.05;1.95;;;18.70;35.40;;;;;;4939987;28;20221;-83
2021/04/19 10:06:47;;;;;;;3.17;2.05;;;18.70;35.40;;;;;;4951416;28;20201;-83
2021/04/19 10:09:15;;;;;;;5.10;1.80;;;18.70;35.20;;;;;;4967995;28;20333;-82
2021/04/19 10:12:03;;;;;;;6.25;2.28;;;18.70;35.10;;;;;;4960692;28;20177;-83
2021/04/19 10:14:42;;;;;;;3.10;1.70;;;18.60;35.50;;;;;;4988496;28;20315;-82
2021/04/19 10:17:15;;;;;;;2.60;1.88;;;18.60;35.30;;;;;;4977172;28;20199;-82
2021/04/19 10:19:42;;;;;;;3.67;1.70;;;18.60;35.20;;;;;;4958433;28;20172;-82
2021/04/19 10:22:09;;;;;;;3.53;2.17;;;18.70;34.80;;;;;;4988539;28;20172;-82
2021/04/19 10:24:52;;;;;;;2.97;1.60;;;18.80;34.90;;;;;;4982027;28;20189;-83
2021/04/19 10:27:32;;;;;;;3.00;1.55;;;18.80;34.80;;;;;;4985609;28;20228;-82
2021/04/19 10:30:17;;;;;;;2.50;1.92;;;18.80;34.70;;;;;;4978450;28;20156;-79
2021/04/19 10:32:48;;;;;;;4.15;1.95;;;18.80;34.90;;;;;;4973334;28;20207;-81
2021/04/19 10:35:48;;;;;;;2.03;1.60;;;18.70;34.80;;;;;;5008256;28;20287;-82
2021/04/19 10:38:16;;;;;;;3.70;1.92;;;18.70;35.10;;;;;;5007572;28;20168;-81
2021/04/19 10:40:42;;;;;;;3.25;1.92;;;18.70;34.70;;;;;;4990866;28;20168;-81
2021/04/19 10:43:18;;;;;;;2.90;1.90;;;18.80;34.60;;;;;;5014186;28;20288;-82
2021/04/19 10:45:47;;;;;;;3.00;1.70;;;18.80;34.60;;;;;;4979066;28;20222;-82
2021/04/19 10:48:28;;;;;;;2.20;1.90;;;18.70;34.60;;;;;;4980392;28;20164;-83
2021/04/19 10:51:17;;;;;;;4.70;1.90;;;18.70;34.80;;;;;;4994495;28;20164;-83
2021/04/19 10:53:48;;;;;;;2.63;2.05;;;18.60;35.00;;;;;;4992587;28;20635;-83
2021/04/19 10:56:21;;;;;;;4.30;1.60;;;18.70;35.00;;;;;;4992757;28;20251;-82
2021/04/19 10:58:56;;;;;;;4.15;1.80;;;18.60;36.00;;;;;;4980045;28;20172;-83
2021/04/19 11:01:24;;;;;;;3.72;1.88;;;18.70;35.50;;;;;;4991117;28;20623;-81
2021/04/19 11:03:51;;;;;;;3.00;1.80;;;18.70;35.10;;;;;;4994674;28;20199;-80
2021/04/19 11:06:17;;;;;;;2.65;1.80;;;18.60;35.10;;;;;;4998026;28;20175;-78
2021/04/19 11:08:47;;;;;;;2.92;1.98;;;18.60;35.00;;;;;;4994807;28;20188;-81
2021/04/19 11:11:51;;;;;;;4.28;1.80;;;18.50;35.20;;;;;;5012143;28;20223;-81
2021/04/19 11:14:21;;;;;;;3.70;2.05;;;18.50;35.10;;;;;;4915594;29;20236;-80
2021/04/19 11:17:10;;;;;;;4.10;1.80;;;18.50;35.00;;;;;;4896811;29;20206;-81
2021/04/19 11:19:54;;;;;;;3.08;2.00;;;18.50;35.00;;;;;;4930937;29;20171;-82
2021/04/19 11:22:48;;;;;;;2.78;1.67;;;18.50;35.50;;;;;;4931545;29;20564;-81
2021/04/19 11:25:46;;;;;;;3.78;2.03;;;18.50;35.00;;;;;;4930414;29;20190;-79
2021/04/19 11:28:43;;;;;;;3.63;1.80;;;18.50;35.10;;;;;;4915234;29;20219;-82
2021/04/19 11:31:12;;;;;;;3.63;1.63;;;18.40;35.00;;;;;;4913052;29;20636;-80
2021/04/19 11:34:36;;;;;;;3.97;1.90;;;18.50;34.80;;;;;;4931328;29;20651;-81
2021/04/19 11:37:50;;;;;;;2.47;1.58;;;18.50;34.70;;;;;;4915678;29;20190;-83
2021/04/19 11:40:46;;;;;;;3.10;1.98;;;18.50;34.60;;;;;;4911935;29;20171;-81
2021/04/19 11:44:08;;;;;;;4.00;1.70;;;18.50;34.80;;;;;;4927023;29;20202;-81
2021/04/19 11:46:39;;;;;;;2.70;2.00;;;18.50;34.70;;;;;;4924310;29;20190;-82
2021/04/19 11:49:05;;;;;;;3.45;1.67;;;18.50;34.70;;;;;;4924730;28;20180;-81
2021/04/19 11:51:31;;;;;;;2.65;1.70;;;18.60;34.40;;;;;;4968154;28;20183;-82
2021/04/19 11:53:57;;;;;;;3.05;1.60;;;18.60;34.40;;;;;;4952386;28;20169;-82
2021/04/19 11:56:23;;;;;;;3.25;1.90;;;18.70;34.40;;;;;;4977449;28;20253;-80
2021/04/19 11:58:49;;;;;;;2.88;1.65;;;18.70;34.40;;;;;;4967734;29;20656;-82
2021/04/19 12:01:20;;;;;;;3.15;1.73;;;18.70;34.10;;;;;;4964941;29;20179;-82
2021/04/19 12:03:48;;;;;;;2.10;1.70;;;18.70;34.10;;;;;;4966310;28;20182;-81
2021/04/19 12:06:14;;;;;;;2.28;1.52;;;18.80;34.10;;;;;;4964897;29;20257;-81
2021/04/19 12:08:43;;;;;;;1.83;1.38;;;18.80;34.10;;;;;;4964499;29;20176;-84
2021/04/19 12:11:13;;;;;;;2.92;1.60;;;18.80;34.10;;;;;;4966174;29;20153;-82
2021/04/19 12:13:39;;;;;;;3.20;1.80;;;18.80;34.20;;;;;;4970432;28;20232;-83
2021/04/19 12:16:06;;;;;;;2.95;1.65;;;18.80;34.20;;;;;;4983946;28;20165;-82
2021/04/19 12:18:33;;;;;;;2.00;1.65;;;18.80;34.20;;;;;;4985613;28;20197;-79
2021/04/19 12:21:00;;;;;;;2.15;1.70;;;18.70;34.10;;;;;;4986913;28;20155;-82
2021/04/19 12:23:28;;;;;;;2.55;1.83;;;18.80;34.10;;;;;;4987378;28;20238;-82
2021/04/19 12:25:55;;;;;;;2.85;1.60;;;18.80;34.10;;;;;;5004541;28;20227;-81
2021/04/19 12:28:28;;;;;;;3.15;1.92;;;18.80;34.10;;;;;;5005459;28;20184;-80
2021/04/19 12:31:02;;;;;;;2.70;1.48;;;18.80;34.10;;;;;;5004589;28;20611;-82
2021/04/19 12:33:29;;;;;;;2.08;1.77;;;18.80;34.00;;;;;;4986588;28;20176;-79
2021/04/19 12:35:56;;;;;;;2.30;1.67;;;18.80;33.90;;;;;;5005010;28;20258;-83
2021/04/19 12:38:22;;;;;;;1.95;1.60;;;18.80;34.10;;;;;;5006908;28;20167;-82
2021/04/19 12:40:48;;;;;;;2.00;1.67;;;18.80;33.90;;;;;;5006080;28;20215;-78
2021/04/19 12:43:14;;;;;;;2.75;1.80;;;18.80;34.10;;;;;;4971541;28;20659;-83
2021/04/19 12:45:43;;;;;;;2.83;1.77;;;18.80;34.10;;;;;;4952314;28;20229;-81
2021/04/19 12:48:09;;;;;;;2.15;1.63;;;18.90;34.00;;;;;;4962137;28;20552;-84
2021/04/19 12:50:37;;;;;;;3.88;1.65;;;18.80;34.00;;;;;;4990763;28;20184;-82
2021/04/19 12:53:07;;;;;;;2.00;1.40;;;18.90;33.90;;;;;;4962502;28;20235;-83
2021/04/19 12:55:32;;;;;;;2.15;1.58;;;18.90;33.70;;;;;;4977541;28;20360;-84
2021/04/19 12:57:58;;;;;;;1.88;1.50;;;18.90;33.90;;;;;;4965929;28;20666;-83
2021/04/19 13:00:24;;;;;;;1.80;1.70;;;18.90;33.90;;;;;;4967633;28;20227;-84
2021/04/19 13:02:50;;;;;;;2.88;1.95;;;18.90;34.70;;;;;;5002860;28;20657;-82
2021/04/19 13:05:16;;;;;;;3.95;1.70;;;18.90;34.00;;;;;;4986089;28;20271;-83
2021/04/19 13:07:44;;;;;;;3.50;1.80;;;18.90;34.10;;;;;;4986626;28;20183;-82
2021/04/19 13:10:13;;;;;;;1.95;1.52;;;18.80;34.10;;;;;;4986228;28;20202;-84
2021/04/19 13:12:38;;;;;;;2.50;1.55;;;18.80;34.20;;;;;;4987128;28;20196;-84
2021/04/19 13:15:07;;;;;;;2.10;1.80;;;18.80;34.10;;;;;;5004488;28;20315;-83
2021/04/19 13:17:34;;;;;;;3.28;1.80;;;18.80;34.10;;;;;;4971051;28;20200;-83
2021/04/19 13:20:02;;;;;;;2.47;1.50;;;18.90;34.10;;;;;;5004030;28;20211;-84
2021/04/19 13:22:28;;;;;;;2.33;1.70;;;18.80;34.00;;;;;;4986758;28;20203;-82
2021/04/19 13:24:55;;;;;;;2.08;1.75;;;18.90;34.10;;;;;;5002733;28;20220;-84
2021/04/19 13:27:22;;;;;;;2.78;1.60;;;18.80;34.10;;;;;;5003831;28;20652;-83
2021/04/19 13:29:49;;;;;;;3.15;1.77;;;18.80;34.10;;;;;;4985760;28;20302;-80
2021/04/19 13:32:16;;;;;;;2.53;1.42;;;18.90;33.90;;;;;;4984595;28;20203;-84
2021/04/19 13:34:44;;;;;;;1.88;1.65;;;18.90;34.10;;;;;;4985138;28;20231;-84
2021/04/19 13:37:10;;;;;;;1.65;1.55;;;18.90;33.90;;;;;;4985762;28;20196;-84
2021/04/19 13:39:35;;;;;;;1.77;1.60;;;18.90;33.90;;;;;;4969778;28;20576;-82
2021/04/19 13:42:10;;;;;;;2.40;1.70;;;18.90;33.90;;;;;;4968891;28;20200;-82
2021/04/19 13:44:37;;;;;;;1.98;1.60;;;18.80;34.10;;;;;;5001997;28;20252;-82
2021/04/19 13:47:03;;;;;;;1.95;1.60;;;18.80;33.80;;;;;;5002666;28;20199;-83
2021/04/19 13:49:37;;;;;;;2.03;1.75;;;18.90;34.00;;;;;;4984972;28;20211;-82
2021/04/19 13:52:04;;;;;;;2.45;1.50;;;18.80;34.00;;;;;;4985153;28;20200;-83
2021/04/19 13:54:30;;;;;;;2.42;1.55;;;18.80;33.80;;;;;;4986000;28;20218;-84
2021/04/19 13:56:58;;;;;;;2.65;1.63;;;18.90;33.80;;;;;;5003699;28;20196;-83
2021/04/19 13:59:24;;;;;;;2.05;1.70;;;18.80;33.90;;;;;;5004256;28;20207;-82
2021/04/19 14:01:49;;;;;;;1.83;1.60;;;18.80;34.20;;;;;;5007767;28;20211;-84
2021/04/19 14:04:32;;;;;;;2.13;1.60;;;18.80;34.30;;;;;;4990337;28;20255;-84
2021/04/19 14:07:11;;;;;;;1.88;1.70;;;18.70;34.50;;;;;;4990761;28;20666;-80
2021/04/19 14:09:56;;;;;;;2.40;1.55;;;18.70;34.40;;;;;;4991263;28;20678;-82
2021/04/19 14:12:28;;;;;;;2.15;1.50;;;18.70;34.40;;;;;;4988719;28;20210;-82
2021/04/19 14:14:58;;;;;;;2.50;1.50;;;18.80;34.40;;;;;;4985100;28;20355;-80
2021/04/19 14:17:24;;;;;;;1.65;1.55;;;18.70;34.40;;;;;;4968191;29;20201;-83
2021/04/19 14:19:50;;;;;;;2.20;1.40;;;18.80;34.50;;;;;;4951607;29;20220;-81
2021/04/19 14:22:16;;;;;;;3.83;1.58;;;18.80;34.60;;;;;;4968745;28;20193;-84